Livorno Express — VRLU9 — position and weather

sailwx.info

Track history (hours):
 
Tides and Currents Weather Stations Pressure Air Temp Water Temp Dewpoint Dewpoint Depression Visibility Wind Speed Wind Dir Waves Ship Positions

Livorno Express

Last reported at 2017-Dec-11 17:01 UTC. Time now 2017-Dec-13 19:04 UTC.
Position N 43°27' E 010°04'.

Length 228 m; draft 8.5 m.

Type: Ship (hazmat cat A). MMSI: 477486100.

Date/timePositionNaut miles runAvg speedWind from/ knotsBaromVisibWave heightAir tempDewpointWater temp
2017-Dec-11 17:01N 43°27' E 010°04'1 2.8
2017-Dec-11 16:31N 43°28' E 010°04'1 1.4
2017-Dec-11 16:01N 43°28' E 010°05'1 2.7
2017-Dec-11 15:31N 43°27' E 010°05'1 2.9
2017-Dec-11 15:01N 43°25' E 010°04'1 2.8
2017-Dec-11 14:31N 43°24' E 010°04'1 2.7
2017-Dec-11 14:01N 43°22' E 010°05'1 2.6
2017-Dec-11 13:31N 43°21' E 010°05'1 2.9
2017-Dec-11 13:01N 43°20' E 010°05'2 3.3
2017-Dec-11 12:31N 43°18' E 010°04'2 3.3
2017-Dec-11 12:01N 43°16' E 010°04'0 0.5
2017-Dec-11 11:30N 43°16' E 010°04'4 7.5
2017-Dec-11 11:01N 43°20' E 010°04'3 6.9
2017-Dec-11 10:31N 43°23' E 010°05'3 6.1
2017-Dec-11 10:01N 43°26' E 010°06'3 6.0
2017-Dec-11 09:31N 43°28' E 010°09'0 0.8
2017-Dec-11 09:01N 43°29' E 010°09'1 2.7
2017-Dec-11 08:31N 43°27' E 010°09'1 2.6
2017-Dec-11 07:57N 43°26' E 010°08'1 2.3
2017-Dec-11 07:31N 43°26' E 010°07'1 2.7
2017-Dec-11 06:59N 43°24' E 010°06'1 2.9
2017-Dec-11 06:31N 43°23' E 010°06'1 2.3
2017-Dec-11 06:00N 43°22' E 010°06'3 6.9
2017-Dec-11 05:31N 43°25' E 010°08'1 2.1
2017-Dec-11 05:00N 43°25' E 010°09'1 2.2
2017-Dec-11 04:30N 43°24' E 010°09'1 2.2
2017-Dec-11 04:01N 43°23' E 010°08'1 2.3
2017-Dec-11 03:31N 43°22' E 010°08'5 9.0
2017-Dec-11 02:58N 43°18' E 010°13'612.5
2017-Dec-11 02:30N 43°13' E 010°12'2 4.7
2017-Dec-11 02:01N 43°11' E 010°14'5 8.4
2017-Dec-11 01:26N 43°16' E 010°16'1 2.4
2017-Dec-11 00:57N 43°15' E 010°14'1 2.6
2017-Dec-11 00:31N 43°14' E 010°14'1 2.6
2017-Dec-11 00:01N 43°13' E 010°13'1 2.6
2017-Dec-10 23:29N 43°12' E 010°13'1 2.7
2017-Dec-10 22:58N 43°10' E 010°12'1 2.6
2017-Dec-10 22:31N 43°09' E 010°12'1 2.4
2017-Dec-10 22:01N 43°08' E 010°11'1 2.5
2017-Dec-10 21:30N 43°07' E 010°10'1 2.5
2017-Dec-10 21:00N 43°06' E 010°09'1 2.4
2017-Dec-10 20:31N 43°05' E 010°08'0 0.5
2017-Dec-10 20:00N 43°05' E 010°08'3 5.9
2017-Dec-10 19:31N 43°08' E 010°10'510.0
2017-Dec-10 18:58N 43°13' E 010°13'510.1
2017-Dec-10 18:28N 43°18' E 010°12'1 3.3
2017-Dec-10 18:00N 43°19' E 010°11'1 2.7
2017-Dec-10 17:31N 43°18' E 010°11'2 3.1
2017-Dec-10 17:01N 43°16' E 010°10'2 3.3
2017-Dec-10 16:27N 43°14' E 010°10'1 1.5
2017-Dec-10 15:55N 43°14' E 010°09'4 9.2
2017-Dec-10 15:27N 43°18' E 010°07'4 8.6
2017-Dec-10 14:57N 43°22' E 010°04'2 5.6
2017-Dec-10 14:31N 43°23' E 010°01'1 2.8
2017-Dec-10 14:01N 43°22' E 010°01'1 2.6
2017-Dec-10 13:31N 43°21' E 009°60'1 2.5
2017-Dec-10 13:00N 43°20' E 009°59'1 2.2
2017-Dec-10 12:31N 43°18' E 009°59'1 2.0
2017-Dec-10 12:01N 43°18' E 009°59'1 1.9
2017-Dec-10 11:31N 43°17' E 009°58'1 1.6
2017-Dec-10 11:00N 43°16' E 009°58'1 1.5
2017-Dec-10 10:30N 43°15' E 009°57'2 5.0
2017-Dec-10 10:01N 43°14' E 009°54'510.1
2017-Dec-10 09:31N 43°13' E 009°48'612.4
2017-Dec-10 09:01N 43°09' E 009°41'510.2
2017-Dec-10 08:31N 43°04' E 009°38'611.9
2017-Dec-10 08:00N 42°59' E 009°40'611.9
2017-Dec-10 07:30N 42°53' E 009°42'1212.1
2017-Dec-10 06:33N 42°42' E 009°47'112.1
2017-Dec-10 06:29N 42°41' E 009°48'712.2
2017-Dec-10 05:53N 42°34' E 009°51'21410.8
2017-Dec-09 10:01N 39°01' E 009°36'211.1
2017-Dec-09 09:51N 38°59' E 009°34'410.3
2017-Dec-09 09:29N 38°59' E 009°29'612.2
2017-Dec-09 09:00N 39°02' E 009°22'612.1
2017-Dec-09 08:30N 39°04' E 009°15'612.0
2017-Dec-09 08:01N 39°06' E 009°08'510.0
2017-Dec-09 07:30N 39°11' E 009°06'2 5.0
2017-Dec-09 07:00N 39°13' E 009°04'0 0.0
2017-Dec-09 06:30N 39°13' E 009°04'0 0.0
2017-Dec-09 06:00N 39°13' E 009°04'0 0.0
2017-Dec-09 05:30N 39°13' E 009°04'0 0.0
2017-Dec-09 05:00N 39°13' E 009°04'0 0.0
2017-Dec-09 04:30N 39°13' E 009°04'0 0.0
2017-Dec-09 04:00N 39°13' E 009°04'0 0.0
2017-Dec-09 03:30N 39°13' E 009°04'0 0.0
2017-Dec-09 03:00N 39°13' E 009°04'0 0.0
2017-Dec-09 02:30N 39°13' E 009°04'0 0.0
2017-Dec-09 02:00N 39°13' E 009°04'0 0.0
2017-Dec-09 01:30N 39°13' E 009°04'0 0.0
2017-Dec-09 01:00N 39°13' E 009°04'0 0.0
2017-Dec-09 00:30N 39°13' E 009°04'0 0.0
2017-Dec-09 00:00N 39°13' E 009°04'0 0.0
2017-Dec-08 23:30N 39°13' E 009°04'0 0.0
2017-Dec-08 23:00N 39°13' E 009°04'0 0.0
2017-Dec-08 22:30N 39°13' E 009°04'0 0.0
2017-Dec-08 22:00N 39°13' E 009°04'0 0.0
2017-Dec-08 21:30N 39°13' E 009°04'0 0.0
2017-Dec-08 21:00N 39°13' E 009°04'0 0.0
2017-Dec-08 20:30N 39°13' E 009°04'0 0.0
2017-Dec-08 20:00N 39°13' E 009°04'0 0.0
2017-Dec-08 19:30N 39°13' E 009°04'0 0.0
2017-Dec-08 19:00N 39°13' E 009°04'0 0.0
2017-Dec-08 18:30N 39°13' E 009°04'0 0.0
2017-Dec-08 17:57N 39°13' E 009°04'0 0.0
2017-Dec-08 17:30N 39°13' E 009°04'0 0.0
2017-Dec-08 16:54N 39°13' E 009°04'0 0.0
2017-Dec-08 16:30N 39°13' E 009°04'0 0.0
2017-Dec-08 16:00N 39°13' E 009°04'0 0.0
2017-Dec-08 15:30N 39°13' E 009°04'2 3.6
2017-Dec-08 15:00N 39°12' E 009°06'4 8.5
2017-Dec-08 14:31N 39°08' E 009°06'610.9
2017-Dec-08 14:00N 39°02' E 009°09'510.7
2017-Dec-08 13:30N 38°57' E 009°06'918.7
2017-Dec-08 13:00N 38°51' E 008°57'917.7
2017-Dec-08 12:30N 38°47' E 008°47'26819.6
2017-Dec-07 22:49N 39°03' E 003°03'1219.7
2017-Dec-07 22:11N 39°04' E 002°47'619.6
2017-Dec-07 21:51N 39°05' E 002°39'719.7
2017-Dec-07 21:30N 39°07' E 002°31'1019.6
2017-Dec-07 21:00N 39°10' E 002°19'  
2017-Dec-04 10:17N 36°03' W 005°23'413.6
2017-Dec-04 10:00N 35°59' W 005°23'58916.8
2017-Dec-02 23:00N 40°30' W 016°30'18016.4 080 / 181025.0 5.4 15.0 9.2
2017-Dec-02 12:00N 42°12' W 019°48'20315.6 090 / 251025.0 5.4 17.013.5
2017-Dec-01 23:00N 43°54' W 023°48'   090 / 301025.0 5.4
Track history (hours):
 
Tides and Currents Weather Stations Pressure Air Temp Water Temp Dewpoint Dewpoint Depression Visibility Wind Speed Wind Dir Waves Ship Positions

Livorno Express

Last reported at 2017-Dec-11 17:01 UTC. Time now 2017-Dec-13 19:04 UTC.
Position N 43°27' E 010°04'.

Length 228 m; draft 8.5 m.

Type: Ship (hazmat cat A). MMSI: 477486100.

Date/timePositionNaut miles runAvg speedWind from/ knotsBaromVisibWave heightAir tempDewpointWater temp
2017-Dec-11 17:01N 43°27' E 010°04'1 2.8
2017-Dec-11 16:31N 43°28' E 010°04'1 1.4
2017-Dec-11 16:01N 43°28' E 010°05'1 2.7
2017-Dec-11 15:31N 43°27' E 010°05'1 2.9
2017-Dec-11 15:01N 43°25' E 010°04'1 2.8
2017-Dec-11 14:31N 43°24' E 010°04'1 2.7
2017-Dec-11 14:01N 43°22' E 010°05'1 2.6
2017-Dec-11 13:31N 43°21' E 010°05'1 2.9
2017-Dec-11 13:01N 43°20' E 010°05'2 3.3
2017-Dec-11 12:31N 43°18' E 010°04'2 3.3
2017-Dec-11 12:01N 43°16' E 010°04'0 0.5
2017-Dec-11 11:30N 43°16' E 010°04'4 7.5
2017-Dec-11 11:01N 43°20' E 010°04'3 6.9
2017-Dec-11 10:31N 43°23' E 010°05'3 6.1
2017-Dec-11 10:01N 43°26' E 010°06'3 6.0
2017-Dec-11 09:31N 43°28' E 010°09'0 0.8
2017-Dec-11 09:01N 43°29' E 010°09'1 2.7
2017-Dec-11 08:31N 43°27' E 010°09'1 2.6
2017-Dec-11 07:57N 43°26' E 010°08'1 2.3
2017-Dec-11 07:31N 43°26' E 010°07'1 2.7
2017-Dec-11 06:59N 43°24' E 010°06'1 2.9
2017-Dec-11 06:31N 43°23' E 010°06'1 2.3
2017-Dec-11 06:00N 43°22' E 010°06'3 6.9
2017-Dec-11 05:31N 43°25' E 010°08'1 2.1
2017-Dec-11 05:00N 43°25' E 010°09'1 2.2
2017-Dec-11 04:30N 43°24' E 010°09'1 2.2
2017-Dec-11 04:01N 43°23' E 010°08'1 2.3
2017-Dec-11 03:31N 43°22' E 010°08'5 9.0
2017-Dec-11 02:58N 43°18' E 010°13'612.5
2017-Dec-11 02:30N 43°13' E 010°12'2 4.7
2017-Dec-11 02:01N 43°11' E 010°14'5 8.4
2017-Dec-11 01:26N 43°16' E 010°16'1 2.4
2017-Dec-11 00:57N 43°15' E 010°14'1 2.6
2017-Dec-11 00:31N 43°14' E 010°14'1 2.6
2017-Dec-11 00:01N 43°13' E 010°13'1 2.6
2017-Dec-10 23:29N 43°12' E 010°13'1 2.7
2017-Dec-10 22:58N 43°10' E 010°12'1 2.6
2017-Dec-10 22:31N 43°09' E 010°12'1 2.4
2017-Dec-10 22:01N 43°08' E 010°11'1 2.5
2017-Dec-10 21:30N 43°07' E 010°10'1 2.5
2017-Dec-10 21:00N 43°06' E 010°09'1 2.4
2017-Dec-10 20:31N 43°05' E 010°08'0 0.5
2017-Dec-10 20:00N 43°05' E 010°08'3 5.9
2017-Dec-10 19:31N 43°08' E 010°10'510.0
2017-Dec-10 18:58N 43°13' E 010°13'510.1
2017-Dec-10 18:28N 43°18' E 010°12'1 3.3
2017-Dec-10 18:00N 43°19' E 010°11'1 2.7
2017-Dec-10 17:31N 43°18' E 010°11'2 3.1
2017-Dec-10 17:01N 43°16' E 010°10'2 3.3
2017-Dec-10 16:27N 43°14' E 010°10'1 1.5
2017-Dec-10 15:55N 43°14' E 010°09'4 9.2
2017-Dec-10 15:27N 43°18' E 010°07'4 8.6
2017-Dec-10 14:57N 43°22' E 010°04'2 5.6
2017-Dec-10 14:31N 43°23' E 010°01'1 2.8
2017-Dec-10 14:01N 43°22' E 010°01'1 2.6
2017-Dec-10 13:31N 43°21' E 009°60'1 2.5
2017-Dec-10 13:00N 43°20' E 009°59'1 2.2
2017-Dec-10 12:31N 43°18' E 009°59'1 2.0
2017-Dec-10 12:01N 43°18' E 009°59'1 1.9
2017-Dec-10 11:31N 43°17' E 009°58'1 1.6
2017-Dec-10 11:00N 43°16' E 009°58'1 1.5
2017-Dec-10 10:30N 43°15' E 009°57'2 5.0
2017-Dec-10 10:01N 43°14' E 009°54'510.1
2017-Dec-10 09:31N 43°13' E 009°48'612.4
2017-Dec-10 09:01N 43°09' E 009°41'510.2
2017-Dec-10 08:31N 43°04' E 009°38'611.9
2017-Dec-10 08:00N 42°59' E 009°40'611.9
2017-Dec-10 07:30N 42°53' E 009°42'1212.1
2017-Dec-10 06:33N 42°42' E 009°47'112.1
2017-Dec-10 06:29N 42°41' E 009°48'712.2
2017-Dec-10 05:53N 42°34' E 009°51'21410.8
2017-Dec-09 10:01N 39°01' E 009°36'211.1
2017-Dec-09 09:51N 38°59' E 009°34'410.3
2017-Dec-09 09:29N 38°59' E 009°29'612.2
2017-Dec-09 09:00N 39°02' E 009°22'612.1
2017-Dec-09 08:30N 39°04' E 009°15'612.0
2017-Dec-09 08:01N 39°06' E 009°08'510.0
2017-Dec-09 07:30N 39°11' E 009°06'2 5.0
2017-Dec-09 07:00N 39°13' E 009°04'0 0.0
2017-Dec-09 06:30N 39°13' E 009°04'0 0.0
2017-Dec-09 06:00N 39°13' E 009°04'0 0.0
2017-Dec-09 05:30N 39°13' E 009°04'0 0.0
2017-Dec-09 05:00N 39°13' E 009°04'0 0.0
2017-Dec-09 04:30N 39°13' E 009°04'0 0.0
2017-Dec-09 04:00N 39°13' E 009°04'0 0.0
2017-Dec-09 03:30N 39°13' E 009°04'0 0.0
2017-Dec-09 03:00N 39°13' E 009°04'0 0.0
2017-Dec-09 02:30N 39°13' E 009°04'0 0.0
2017-Dec-09 02:00N 39°13' E 009°04'0 0.0
2017-Dec-09 01:30N 39°13' E 009°04'0 0.0
2017-Dec-09 01:00N 39°13' E 009°04'0 0.0
2017-Dec-09 00:30N 39°13' E 009°04'0 0.0
2017-Dec-09 00:00N 39°13' E 009°04'0 0.0
2017-Dec-08 23:30N 39°13' E 009°04'0 0.0
2017-Dec-08 23:00N 39°13' E 009°04'0 0.0
2017-Dec-08 22:30N 39°13' E 009°04'0 0.0
2017-Dec-08 22:00N 39°13' E 009°04'0 0.0
2017-Dec-08 21:30N 39°13' E 009°04'0 0.0
2017-Dec-08 21:00N 39°13' E 009°04'0 0.0
2017-Dec-08 20:30N 39°13' E 009°04'0 0.0
2017-Dec-08 20:00N 39°13' E 009°04'0 0.0
2017-Dec-08 19:30N 39°13' E 009°04'0 0.0
2017-Dec-08 19:00N 39°13' E 009°04'0 0.0
2017-Dec-08 18:30N 39°13' E 009°04'0 0.0
2017-Dec-08 17:57N 39°13' E 009°04'0 0.0
2017-Dec-08 17:30N 39°13' E 009°04'0 0.0
2017-Dec-08 16:54N 39°13' E 009°04'0 0.0
2017-Dec-08 16:30N 39°13' E 009°04'0 0.0
2017-Dec-08 16:00N 39°13' E 009°04'0 0.0
2017-Dec-08 15:30N 39°13' E 009°04'2 3.6
2017-Dec-08 15:00N 39°12' E 009°06'4 8.5
2017-Dec-08 14:31N 39°08' E 009°06'610.9
2017-Dec-08 14:00N 39°02' E 009°09'510.7
2017-Dec-08 13:30N 38°57' E 009°06'918.7
2017-Dec-08 13:00N 38°51' E 008°57'917.7
2017-Dec-08 12:30N 38°47' E 008°47'26819.6
2017-Dec-07 22:49N 39°03' E 003°03'1219.7
2017-Dec-07 22:11N 39°04' E 002°47'619.6
2017-Dec-07 21:51N 39°05' E 002°39'719.7
2017-Dec-07 21:30N 39°07' E 002°31'1019.6
2017-Dec-07 21:00N 39°10' E 002°19'  
2017-Dec-04 10:17N 36°03' W 005°23'413.6
2017-Dec-04 10:00N 35°59' W 005°23'58916.8
2017-Dec-02 23:00N 40°30' W 016°30'18016.4 080 / 181025.0 5.4 15.0 9.2
2017-Dec-02 12:00N 42°12' W 019°48'20315.6 090 / 251025.0 5.4 17.013.5
2017-Dec-01 23:00N 43°54' W 023°48'   090 / 301025.0 5.4

Dump ship's entire track history